Time;durP1;ratioP1;P1;durP2;ratioP2;P2;SDS_P1;SDS_P2;PMS_P1;PMS_P2;Temp;Humidity;BMP_temperature;BMP_pressure;BME280_temperature;BME280_humidity;BME280_pressure;Samples;Min_cycle;Max_cycle;Signal;HPM_P1;HPM_P2
2023/07/28 00:02:07;;;;;;;5.88;3.30;;;18.80;97.20;;;;;;10314463;28;20303;-68
2023/07/28 00:07:08;;;;;;;6.20;3.42;;;18.80;97.20;;;;;;10307659;28;20031;-68
2023/07/28 00:12:08;;;;;;;6.60;3.40;;;18.80;97.30;;;;;;10316957;28;20073;-68
2023/07/28 00:17:09;;;;;;;3.35;3.00;;;18.80;97.30;;;;;;10318366;28;20034;-68
2023/07/28 00:22:10;;;;;;;5.63;3.35;;;18.80;97.30;;;;;;10315099;28;20019;-67
2023/07/28 00:27:12;;;;;;;4.15;3.28;;;18.80;97.30;;;;;;10312074;28;20413;-68
2023/07/28 00:32:13;;;;;;;6.90;3.60;;;18.80;97.40;;;;;;10316802;28;20023;-68
2023/07/28 00:37:14;;;;;;;4.85;3.40;;;18.80;97.40;;;;;;10309047;28;20541;-67
2023/07/28 00:42:14;;;;;;;6.85;3.75;;;18.80;97.40;;;;;;10311799;28;20035;-68
2023/07/28 00:47:15;;;;;;;4.72;3.65;;;18.80;97.40;;;;;;10315507;28;20041;-68
2023/07/28 00:52:16;;;;;;;5.63;3.78;;;18.80;97.40;;;;;;10311906;28;20422;-68
2023/07/28 00:57:18;;;;;;;7.72;4.20;;;18.80;97.40;;;;;;10318432;28;20018;-68
2023/07/28 01:02:20;;;;;;;6.45;4.30;;;18.80;97.50;;;;;;10321282;28;20023;-68
2023/07/28 01:08:03;;;;;;;6.82;3.95;;;18.80;97.50;;;;;;10322461;28;20026;-68
2023/07/28 01:13:04;;;;;;;5.95;4.03;;;18.80;97.50;;;;;;10291852;28;20190;-68
2023/07/28 01:18:04;;;;;;;5.40;4.00;;;18.80;97.50;;;;;;10320980;28;20038;-68
2023/07/28 01:23:13;;;;;;;8.80;4.63;;;18.80;97.50;;;;;;10316093;28;20030;-68
2023/07/28 01:28:15;;;;;;;4.97;3.95;;;18.80;97.50;;;;;;10314283;28;20030;-68
2023/07/28 01:33:16;;;;;;;5.40;3.65;;;18.80;97.50;;;;;;10323160;28;20057;-68
2023/07/28 01:38:17;;;;;;;5.82;3.80;;;18.80;97.50;;;;;;10312625;28;20554;-68
2023/07/28 01:43:18;;;;;;;5.47;4.00;;;18.80;97.50;;;;;;10320101;28;20038;-68
2023/07/28 01:48:19;;;;;;;7.97;4.43;;;18.70;97.50;;;;;;10317693;28;20034;-68
2023/07/28 01:53:19;;;;;;;7.10;4.15;;;18.80;97.50;;;;;;10316515;28;20439;-68
2023/07/28 01:58:20;;;;;;;6.68;4.35;;;18.80;97.60;;;;;;10323721;28;20026;-68
2023/07/28 02:03:20;;;;;;;7.05;4.40;;;18.80;97.60;;;;;;10330870;28;20376;-68
2023/07/28 02:08:21;;;;;;;6.75;4.35;;;18.80;97.60;;;;;;10331521;28;20030;-68
2023/07/28 02:13:21;;;;;;;8.18;4.68;;;18.80;97.60;;;;;;10314128;28;20026;-68
2023/07/28 02:18:22;;;;;;;7.22;4.50;;;18.80;97.60;;;;;;10328115;28;20062;-68
2023/07/28 02:23:23;;;;;;;5.97;4.25;;;18.70;97.60;;;;;;10321802;28;20030;-68
2023/07/28 02:28:23;;;;;;;8.90;4.72;;;18.70;97.80;;;;;;10324114;28;20082;-68
2023/07/28 02:33:24;;;;;;;6.93;4.40;;;18.70;97.60;;;;;;10323319;28;20049;-68
2023/07/28 02:38:25;;;;;;;6.15;4.43;;;18.70;97.60;;;;;;10327038;28;20031;-69
2023/07/28 02:43:25;;;;;;;5.90;4.60;;;18.70;97.60;;;;;;10328415;28;20479;-68
2023/07/28 02:48:26;;;;;;;6.03;4.65;;;18.70;97.60;;;;;;10333292;28;20037;-68
2023/07/28 02:53:27;;;;;;;8.85;5.03;;;18.70;97.60;;;;;;10310814;28;20105;-69
2023/07/28 02:58:28;;;;;;;5.93;4.80;;;18.70;97.60;;;;;;10314038;28;20073;-68
2023/07/28 03:03:28;;;;;;;6.07;4.88;;;18.70;97.60;;;;;;10323282;28;20022;-68
2023/07/28 03:08:29;;;;;;;6.55;4.85;;;18.70;97.50;;;;;;10314532;28;20052;-68
2023/07/28 03:13:29;;;;;;;6.55;4.53;;;18.70;97.50;;;;;;10310349;28;20259;-69
2023/07/28 03:18:30;;;;;;;7.93;5.30;;;18.70;97.50;;;;;;10322065;28;20035;-67
2023/07/28 03:23:31;;;;;;;8.07;4.85;;;18.70;97.80;;;;;;10325901;28;20271;-68
2023/07/28 03:28:32;;;;;;;7.05;4.53;;;18.80;97.60;;;;;;10325919;28;20018;-67
2023/07/28 03:33:33;;;;;;;9.05;5.30;;;18.70;97.60;;;;;;10300859;28;20085;-68
2023/07/28 03:38:33;;;;;;;8.43;5.32;;;18.70;97.60;;;;;;10320324;28;20113;-68
2023/07/28 03:43:34;;;;;;;7.03;4.93;;;18.70;97.60;;;;;;10324925;28;20033;-68
2023/07/28 03:48:35;;;;;;;8.07;5.90;;;18.70;97.60;;;;;;10324467;28;20023;-67
2023/07/28 03:53:35;;;;;;;9.27;5.30;;;18.80;97.60;;;;;;10325281;28;20029;-68
2023/07/28 03:58:36;;;;;;;7.28;4.80;;;18.70;97.60;;;;;;10317090;28;20022;-68
2023/07/28 04:03:38;;;;;;;8.20;5.07;;;18.70;97.60;;;;;;10320745;28;20042;-68
2023/07/28 04:08:39;;;;;;;8.13;4.80;;;18.70;97.60;;;;;;10321353;28;20487;-68
2023/07/28 04:13:40;;;;;;;6.25;4.85;;;18.80;97.80;;;;;;10320252;28;20026;-68
2023/07/28 04:18:40;;;;;;;5.80;4.70;;;18.80;97.60;;;;;;10316424;28;20044;-68
2023/07/28 04:23:41;;;;;;;6.22;4.53;;;18.60;97.50;;;;;;10323848;28;20045;-68
2023/07/28 04:28:42;;;;;;;8.45;5.63;;;18.70;97.50;;;;;;10323932;28;20035;-68
2023/07/28 04:33:42;;;;;;;7.45;5.03;;;18.80;97.60;;;;;;10330417;28;20182;-68
2023/07/28 04:38:43;;;;;;;7.18;4.97;;;18.70;97.60;;;;;;10332046;28;20314;-68
2023/07/28 04:43:43;;;;;;;8.55;5.75;;;18.70;97.60;;;;;;10321364;28;20410;-68
2023/07/28 04:48:45;;;;;;;9.93;5.65;;;18.70;97.70;;;;;;10325465;28;20091;-68
2023/07/28 04:53:46;;;;;;;9.23;5.85;;;18.70;97.70;;;;;;10330054;28;20341;-68
2023/07/28 04:58:46;;;;;;;9.23;5.88;;;18.80;97.80;;;;;;10328637;28;20104;-68
2023/07/28 05:03:47;;;;;;;9.75;5.35;;;18.80;97.80;;;;;;10330874;28;20023;-69
2023/07/28 05:08:48;;;;;;;7.88;5.47;;;18.80;97.80;;;;;;10328485;28;20030;-68
2023/07/28 05:13:48;;;;;;;6.95;5.00;;;18.80;97.90;;;;;;10324108;28;20023;-68
2023/07/28 05:18:49;;;;;;;7.97;5.22;;;18.80;97.80;;;;;;10330714;28;20034;-68
2023/07/28 05:23:49;;;;;;;8.05;5.10;;;18.80;97.80;;;;;;10324975;28;20300;-68
2023/07/28 05:28:50;;;;;;;6.63;4.68;;;18.80;97.80;;;;;;10327856;28;20600;-68
2023/07/28 05:33:53;;;;;;;9.23;5.47;;;18.80;97.80;;;;;;10324370;28;20044;-68
2023/07/28 05:38:56;;;;;;;8.27;5.18;;;18.80;98.10;;;;;;10321165;28;20021;-68
2023/07/28 05:43:56;;;;;;;7.68;4.97;;;18.80;97.80;;;;;;10322266;28;20026;-68
2023/07/28 05:48:58;;;;;;;6.50;4.85;;;18.80;97.80;;;;;;10317588;28;20022;-68
2023/07/28 05:53:59;;;;;;;8.45;5.68;;;18.80;97.90;;;;;;10321317;28;20018;-69
2023/07/28 05:59:00;;;;;;;6.38;4.97;;;18.80;97.90;;;;;;10324603;28;20042;-68
2023/07/28 06:04:02;;;;;;;9.40;6.00;;;18.80;98.00;;;;;;10309809;28;20030;-67
2023/07/28 06:09:03;;;;;;;8.00;4.68;;;18.80;98.00;;;;;;10317336;28;20022;-68
2023/07/28 06:14:03;;;;;;;8.30;4.90;;;18.90;98.00;;;;;;10321538;28;20454;-69
2023/07/28 06:19:04;;;;;;;7.45;4.95;;;18.90;98.00;;;;;;10322711;28;20030;-68
2023/07/28 06:24:05;;;;;;;9.25;5.30;;;18.90;98.10;;;;;;10331150;28;20561;-69
2023/07/28 06:29:06;;;;;;;10.57;5.50;;;18.90;98.10;;;;;;10320420;28;20466;-68
2023/07/28 06:34:07;;;;;;;8.52;5.10;;;18.90;98.30;;;;;;10322084;28;20030;-68
2023/07/28 06:39:07;;;;;;;11.80;5.10;;;19.00;98.30;;;;;;10324874;28;20098;-65
2023/07/28 06:44:08;;;;;;;8.18;4.43;;;19.00;98.30;;;;;;10320936;28;20105;-66
2023/07/28 06:49:08;;;;;;;13.57;6.47;;;19.00;98.30;;;;;;10318064;28;20034;-65
2023/07/28 06:54:12;;;;;;;6.90;5.00;;;19.00;98.20;;;;;;10319395;28;20027;-66
2023/07/28 06:59:12;;;;;;;10.30;5.18;;;19.10;98.20;;;;;;10323010;28;20022;-66
2023/07/28 07:04:13;;;;;;;8.00;4.68;;;19.10;98.20;;;;;;10318037;28;20041;-66
2023/07/28 07:09:14;;;;;;;10.35;5.07;;;19.10;98.20;;;;;;10319487;28;20042;-67
2023/07/28 07:14:15;;;;;;;9.20;5.18;;;19.10;98.50;;;;;;10315973;28;20022;-69
2023/07/28 07:19:15;;;;;;;10.80;5.60;;;19.10;98.70;;;;;;10315630;28;20169;-67
2023/07/28 07:24:16;;;;;;;10.40;5.50;;;19.20;98.90;;;;;;10315183;28;20450;-66
2023/07/28 07:29:17;;;;;;;10.32;5.95;;;19.20;99.10;;;;;;10319072;28;20101;-67
2023/07/28 07:34:17;;;;;;;9.25;5.15;;;19.20;99.20;;;;;;10301601;28;20026;-67
2023/07/28 07:39:18;;;;;;;8.35;5.22;;;19.20;99.30;;;;;;10312708;28;20006;-66
2023/07/28 07:44:19;;;;;;;9.85;5.07;;;19.30;99.40;;;;;;10319000;28;20098;-67
2023/07/28 07:49:19;;;;;;;9.65;5.13;;;19.30;99.40;;;;;;10319024;28;20029;-66
2023/07/28 07:54:20;;;;;;;7.63;4.45;;;19.30;99.40;;;;;;10314565;28;20042;-67
2023/07/28 07:59:21;;;;;;;8.25;5.07;;;19.40;99.50;;;;;;10305228;28;20029;-67
2023/07/28 08:04:22;;;;;;;8.55;4.55;;;19.40;99.50;;;;;;10316536;28;20030;-67
2023/07/28 08:09:22;;;;;;;8.05;4.53;;;19.40;99.50;;;;;;10320702;28;20248;-66
2023/07/28 08:14:23;;;;;;;9.88;4.47;;;19.40;99.50;;;;;;10313318;28;20117;-67
2023/07/28 08:19:24;;;;;;;7.68;4.40;;;19.50;99.50;;;;;;10306787;28;20011;-66
2023/07/28 08:24:25;;;;;;;7.00;4.65;;;19.60;99.60;;;;;;10318412;28;20014;-66
2023/07/28 08:29:25;;;;;;;6.88;4.18;;;19.60;99.50;;;;;;10311958;28;20475;-67
2023/07/28 08:34:26;;;;;;;11.63;5.32;;;19.60;99.50;;;;;;10307477;28;20075;-67
2023/07/28 08:39:27;;;;;;;6.68;4.38;;;19.70;99.70;;;;;;10311465;28;20074;-68
2023/07/28 08:44:36;;;;;;;8.25;4.75;;;19.70;99.60;;;;;;10302198;28;20073;-69
2023/07/28 08:49:37;;;;;;;8.48;4.65;;;19.70;99.70;;;;;;10315190;28;20129;-69
2023/07/28 08:54:37;;;;;;;7.28;4.72;;;19.80;99.70;;;;;;10315967;28;20026;-68
2023/07/28 08:59:41;;;;;;;14.50;5.35;;;19.80;99.80;;;;;;10315384;28;20057;-70
2023/07/28 09:04:43;;;;;;;10.40;5.32;;;19.90;99.80;;;;;;10317208;28;20031;-70
2023/07/28 09:09:46;;;;;;;10.98;5.57;;;19.90;99.90;;;;;;10314847;28;20026;-70
2023/07/28 09:14:46;;;;;;;8.13;4.80;;;19.90;99.90;;;;;;10315674;28;20042;-70
2023/07/28 09:19:54;;;;;;;10.43;5.43;;;19.90;99.90;;;;;;10324150;28;20391;-70
2023/07/28 09:24:55;;;;;;;10.00;5.07;;;19.90;99.90;;;;;;10336883;28;20064;-70
2023/07/28 09:29:56;;;;;;;11.15;5.10;;;19.90;99.90;;;;;;10325851;28;20118;-70
2023/07/28 09:35:13;;;;;;;8.52;4.93;;;20.00;99.90;;;;;;10320769;28;20031;-70
2023/07/28 09:40:16;;;;;;;8.80;5.43;;;20.00;99.90;;;;;;10314348;28;20022;-70
2023/07/28 09:45:18;;;;;;;9.23;5.00;;;20.00;99.90;;;;;;10323727;28;20054;-70
2023/07/28 09:50:23;;;;;;;7.03;4.90;;;20.00;99.90;;;;;;10322529;28;20474;-70
2023/07/28 09:55:24;;;;;;;9.48;5.43;;;20.10;99.90;;;;;;10318614;28;20481;-70
2023/07/28 10:00:25;;;;;;;8.13;5.10;;;20.10;99.90;;;;;;10320296;28;20030;-70
2023/07/28 10:05:27;;;;;;;8.38;5.07;;;20.10;99.90;;;;;;10315939;28;20030;-70
2023/07/28 10:10:28;;;;;;;6.68;4.85;;;20.30;99.90;;;;;;10321011;28;20026;-70
2023/07/28 10:15:31;;;;;;;9.52;5.57;;;20.30;99.90;;;;;;10316539;28;20077;-70
2023/07/28 10:20:37;;;;;;;8.98;5.20;;;20.30;99.90;;;;;;10322394;28;20514;-71
2023/07/28 10:25:40;;;;;;;9.37;5.10;;;20.50;99.90;;;;;;10323320;28;20030;-70
2023/07/28 10:30:52;;;;;;;11.85;6.10;;;20.50;99.90;;;;;;10318845;28;20487;-69
2023/07/28 10:35:53;;;;;;;10.40;5.90;;;20.50;99.90;;;;;;10323426;28;20045;-70
2023/07/28 10:41:22;;;;;;;8.43;5.22;;;20.50;99.90;;;;;;10320778;28;20058;-70
2023/07/28 10:46:26;;;;;;;11.18;5.40;;;20.50;99.90;;;;;;10345284;28;20077;-69
2023/07/28 10:51:33;;;;;;;9.02;5.05;;;20.60;99.90;;;;;;10317323;28;20022;-69
2023/07/28 10:56:33;;;;;;;6.38;5.03;;;20.60;99.90;;;;;;10320643;28;20041;-69
2023/07/28 11:01:36;;;;;;;9.23;4.75;;;20.60;99.90;;;;;;10321659;28;20080;-69
2023/07/28 11:06:45;;;;;;;9.18;5.15;;;20.60;99.90;;;;;;10314991;28;20069;-69
2023/07/28 11:11:46;;;;;;;8.65;4.88;;;20.60;99.90;;;;;;10314925;28;20118;-69
2023/07/28 11:16:50;;;;;;;7.70;4.97;;;20.60;99.90;;;;;;10314554;28;20459;-70
2023/07/28 11:21:51;;;;;;;8.38;5.07;;;20.70;99.90;;;;;;10314430;28;20022;-72
2023/07/28 11:26:52;;;;;;;6.93;4.78;;;20.70;99.90;;;;;;10318508;28;20033;-72
2023/07/28 11:31:53;;;;;;;8.88;4.50;;;21.00;99.90;;;;;;10317434;28;20506;-71
2023/07/28 11:36:55;;;;;;;7.15;4.40;;;21.50;99.90;;;;;;10311428;28;20034;-71
2023/07/28 11:41:57;;;;;;;9.80;4.20;;;21.80;99.90;;;;;;10309227;28;20030;-71
2023/07/28 11:46:58;;;;;;;6.55;4.13;;;22.10;99.90;;;;;;10309584;28;20022;-72
2023/07/28 11:51:58;;;;;;;6.05;3.40;;;22.10;99.90;;;;;;10317096;28;20045;-72
2023/07/28 11:56:59;;;;;;;4.10;3.63;;;22.10;99.90;;;;;;10326636;28;20477;-71
2023/07/28 12:02:02;;;;;;;5.07;3.72;;;22.30;99.90;;;;;;10318907;28;20033;-72
2023/07/28 12:07:09;;;;;;;5.25;3.33;;;22.20;99.90;;;;;;10327274;28;20026;-71
2023/07/28 12:12:09;;;;;;;3.90;3.25;;;22.20;99.80;;;;;;10318307;28;20411;-72
2023/07/28 12:17:13;;;;;;;6.00;3.30;;;22.30;99.70;;;;;;10345800;28;20030;-72
2023/07/28 12:22:14;;;;;;;4.10;3.10;;;22.50;99.60;;;;;;10315497;28;20033;-72
2023/07/28 12:27:15;;;;;;;5.93;3.70;;;22.70;99.30;;;;;;10321284;28;20256;-72
2023/07/28 12:32:16;;;;;;;4.10;3.58;;;22.90;99.00;;;;;;10318482;28;20066;-71
2023/07/28 12:37:18;;;;;;;4.15;3.17;;;22.80;99.10;;;;;;10318261;28;20221;-71
2023/07/28 12:42:20;;;;;;;4.82;3.72;;;22.70;99.10;;;;;;10314545;28;20072;-74
2023/07/28 12:47:20;;;;;;;5.22;3.30;;;22.90;99.00;;;;;;10309137;28;20414;-69
2023/07/28 12:52:21;;;;;;;6.80;4.07;;;23.10;98.70;;;;;;10313544;28;20018;-69
2023/07/28 12:57:22;;;;;;;5.78;3.92;;;23.30;98.50;;;;;;10330081;28;20049;-71
2023/07/28 13:02:22;;;;;;;6.63;4.18;;;23.40;98.40;;;;;;10323457;28;20088;-72
2023/07/28 13:07:23;;;;;;;6.15;4.15;;;23.50;98.40;;;;;;10310969;28;20014;-71
2023/07/28 13:12:24;;;;;;;6.30;3.83;;;23.50;98.40;;;;;;10314268;28;20573;-69
2023/07/28 13:17:24;;;;;;;6.57;3.75;;;23.50;98.40;;;;;;10316910;28;20030;-70
2023/07/28 13:22:26;;;;;;;7.53;4.10;;;23.70;98.20;;;;;;10327890;28;20037;-72
2023/07/28 13:27:27;;;;;;;4.45;3.58;;;23.50;98.30;;;;;;10326047;28;20037;-71
2023/07/28 13:32:27;;;;;;;5.20;3.80;;;23.50;98.50;;;;;;10328204;28;20359;-71
2023/07/28 13:37:28;;;;;;;7.22;3.80;;;23.60;98.30;;;;;;10325371;28;20026;-71
2023/07/28 13:42:28;;;;;;;6.35;3.63;;;23.70;98.10;;;;;;10321092;28;20023;-71
2023/07/28 13:47:29;;;;;;;6.05;4.03;;;23.60;98.10;;;;;;10322269;28;20027;-72
2023/07/28 13:52:30;;;;;;;5.32;3.97;;;23.70;98.10;;;;;;10320415;28;20077;-72
2023/07/28 13:57:32;;;;;;;7.55;5.22;;;23.80;98.00;;;;;;10323962;28;20030;-72
2023/07/28 14:02:33;;;;;;;5.82;4.80;;;23.70;98.00;;;;;;10323745;28;20039;-72
2023/07/28 14:07:34;;;;;;;7.82;5.05;;;23.70;98.00;;;;;;10322032;28;20030;-72
2023/07/28 14:12:35;;;;;;;8.63;5.75;;;23.60;98.10;;;;;;10317015;28;20030;-71
2023/07/28 14:17:35;;;;;;;7.82;4.78;;;23.50;98.10;;;;;;10318777;28;20102;-72
2023/07/28 14:22:37;;;;;;;5.85;4.60;;;23.50;98.10;;;;;;10317070;28;20503;-71
2023/07/28 14:27:37;;;;;;;8.27;3.60;;;23.60;97.90;;;;;;10323783;28;20138;-72
2023/07/28 14:32:38;;;;;;;8.30;3.67;;;23.60;97.70;;;;;;10324626;28;20414;-72
2023/07/28 14:37:39;;;;;;;5.38;3.80;;;23.70;97.60;;;;;;10322078;28;20023;-73
2023/07/28 14:42:40;;;;;;;5.80;3.60;;;23.80;97.40;;;;;;10318044;28;20053;-73
2023/07/28 14:47:40;;;;;;;4.53;3.58;;;23.80;97.30;;;;;;10320145;28;20022;-73
2023/07/28 14:52:41;;;;;;;4.90;3.75;;;23.80;97.30;;;;;;10319658;28;20030;-73
2023/07/28 14:57:41;;;;;;;5.65;3.80;;;24.00;97.40;;;;;;10326710;28;20023;-73
2023/07/28 15:02:42;;;;;;;5.10;3.55;;;24.10;97.00;;;;;;10323429;28;20053;-73
2023/07/28 15:07:44;;;;;;;5.82;3.53;;;24.00;97.20;;;;;;10320612;28;20465;-73
2023/07/28 15:12:45;;;;;;;7.13;3.45;;;24.00;97.10;;;;;;10319520;28;20034;-73
2023/07/28 15:17:53;;;;;;;5.05;3.10;;;23.90;97.00;;;;;;10319096;28;20080;-71
2023/07/28 15:22:53;;;;;;;5.03;3.10;;;24.10;96.80;;;;;;10317850;28;20034;-70
2023/07/28 15:27:54;;;;;;;4.80;3.38;;;24.30;96.40;;;;;;10320051;28;20036;-70
2023/07/28 15:32:54;;;;;;;6.57;3.40;;;24.60;96.20;;;;;;10311671;28;20032;-71
2023/07/28 15:37:55;;;;;;;4.07;3.08;;;24.80;95.90;;;;;;10311668;28;20281;-71
2023/07/28 15:42:56;;;;;;;6.95;3.20;;;24.90;95.80;;;;;;10317385;28;20570;-72
2023/07/28 15:47:56;;;;;;;4.35;2.92;;;25.00;95.70;;;;;;10318245;28;20030;-72
2023/07/28 15:52:57;;;;;;;5.60;3.10;;;25.10;95.50;;;;;;10319588;28;20081;-71
2023/07/28 15:57:58;;;;;;;5.40;2.90;;;25.20;95.40;;;;;;10318988;28;20018;-70
2023/07/28 16:02:59;;;;;;;6.60;3.00;;;25.00;95.50;;;;;;10317778;28;20084;-71
2023/07/28 16:07:59;;;;;;;5.18;3.90;;;24.90;95.50;;;;;;10314141;28;20447;-72
2023/07/28 16:13:00;;;;;;;4.70;2.83;;;24.70;95.70;;;;;;10313579;28;20142;-71
2023/07/28 16:18:00;;;;;;;2.67;2.00;;;24.50;95.80;;;;;;10313741;28;20482;-72
2023/07/28 16:23:01;;;;;;;4.07;3.08;;;24.30;95.80;;;;;;10317361;28;20026;-71
2023/07/28 16:28:02;;;;;;;4.85;2.33;;;24.20;95.90;;;;;;10323515;28;20089;-71
2023/07/28 16:33:02;;;;;;;6.07;2.60;;;24.10;95.90;;;;;;10321521;28;20046;-71
2023/07/28 16:38:03;;;;;;;6.03;2.88;;;23.90;95.90;;;;;;10326698;28;20018;-71
2023/07/28 16:43:04;;;;;;;4.07;2.88;;;23.70;96.10;;;;;;10321837;28;20391;-70
2023/07/28 16:48:04;;;;;;;4.72;3.20;;;23.60;96.40;;;;;;10323687;28;20053;-70
2023/07/28 16:53:05;;;;;;;9.60;3.22;;;23.50;96.60;;;;;;10328808;28;20075;-70
2023/07/28 16:58:05;;;;;;;4.35;3.08;;;23.40;96.60;;;;;;10323848;28;20053;-72
2023/07/28 17:03:06;;;;;;;4.75;3.13;;;23.40;96.80;;;;;;10324223;28;20030;-69
2023/07/28 17:08:07;;;;;;;5.63;3.38;;;23.40;96.80;;;;;;10323908;28;20026;-69
2023/07/28 17:13:07;;;;;;;4.03;3.40;;;23.30;96.80;;;;;;10320850;28;20030;-69
2023/07/28 17:18:08;;;;;;;6.60;3.60;;;23.30;96.90;;;;;;10323875;28;20099;-69
2023/07/28 17:23:09;;;;;;;8.13;3.80;;;23.20;96.90;;;;;;10327033;28;20034;-70
2023/07/28 17:28:09;;;;;;;6.03;3.55;;;23.10;97.00;;;;;;10322576;28;20096;-71
2023/07/28 17:33:10;;;;;;;6.88;3.47;;;23.10;97.30;;;;;;10325959;28;20034;-71
2023/07/28 17:38:11;;;;;;;6.32;4.30;;;23.10;97.50;;;;;;10310798;28;20030;-71
2023/07/28 17:43:12;;;;;;;6.18;3.60;;;23.00;97.50;;;;;;10314198;28;20514;-71
2023/07/28 17:48:14;;;;;;;8.52;3.97;;;22.90;97.40;;;;;;10321165;28;20421;-71
2023/07/28 17:53:15;;;;;;;6.05;4.05;;;22.80;97.30;;;;;;10314074;28;20015;-71
2023/07/28 17:58:16;;;;;;;6.63;4.38;;;22.70;97.40;;;;;;10320920;28;20481;-70
2023/07/28 18:03:17;;;;;;;5.95;4.22;;;22.70;97.40;;;;;;10315327;28;20026;-70
2023/07/28 18:08:18;;;;;;;6.28;4.07;;;22.70;97.40;;;;;;10320401;28;20072;-74
2023/07/28 18:13:18;;;;;;;7.18;4.28;;;22.70;97.60;;;;;;10308784;28;20117;-71
2023/07/28 18:18:19;;;;;;;7.85;3.90;;;22.60;97.80;;;;;;10303964;28;20026;-73
2023/07/28 18:23:20;;;;;;;10.00;5.87;;;22.60;97.90;;;;;;10337393;28;20412;-65
2023/07/28 18:28:21;;;;;;;5.28;3.58;;;22.90;97.50;;;;;;10314383;28;20446;-66
2023/07/28 18:33:23;;;;;;;5.75;4.35;;;22.70;97.60;;;;;;10316518;28;20026;-65
2023/07/28 18:38:24;;;;;;;5.63;3.33;;;22.60;97.50;;;;;;10314214;28;20026;-66
2023/07/28 18:43:27;;;;;;;6.70;4.20;;;22.70;97.50;;;;;;10317116;28;20025;-66
2023/07/28 18:48:27;;;;;;;5.10;3.53;;;22.60;97.50;;;;;;10312413;28;20081;-65
2023/07/28 18:53:28;;;;;;;6.80;3.50;;;22.50;97.50;;;;;;10327703;28;20376;-66
2023/07/28 18:58:29;;;;;;;4.25;3.08;;;22.40;97.40;;;;;;10307270;28;20031;-65
2023/07/28 19:03:31;;;;;;;4.90;3.50;;;22.40;97.50;;;;;;10310429;28;20030;-66
2023/07/28 19:08:32;;;;;;;7.50;3.45;;;22.40;97.50;;;;;;10317132;28;20531;-65
2023/07/28 19:13:32;;;;;;;5.18;3.00;;;22.40;97.50;;;;;;10318765;28;20260;-65
2023/07/28 19:18:33;;;;;;;8.40;3.00;;;22.30;97.40;;;;;;10315632;28;20140;-65
2023/07/28 19:23:34;;;;;;;6.35;3.25;;;22.30;97.50;;;;;;10313258;28;20018;-65
2023/07/28 19:28:35;;;;;;;4.72;2.88;;;22.20;97.60;;;;;;10310377;28;20057;-65
2023/07/28 19:33:36;;;;;;;4.88;2.70;;;22.20;97.60;;;;;;10310437;28;20525;-65
2023/07/28 19:38:36;;;;;;;6.68;3.47;;;22.10;97.70;;;;;;10312133;28;20022;-65
2023/07/28 19:43:37;;;;;;;5.55;3.72;;;22.00;97.80;;;;;;10308515;28;20026;-65
2023/07/28 19:48:38;;;;;;;5.30;3.20;;;22.00;97.80;;;;;;10316230;28;20034;-65
2023/07/28 19:53:39;;;;;;;5.82;3.63;;;22.00;98.00;;;;;;10312533;28;20112;-65
2023/07/28 19:58:39;;;;;;;4.70;3.20;;;22.00;98.10;;;;;;10312692;28;20018;-65
2023/07/28 20:03:40;;;;;;;6.15;3.42;;;21.90;98.20;;;;;;10307898;28;20034;-65
2023/07/28 20:08:41;;;;;;;5.75;3.40;;;21.90;98.30;;;;;;10311766;28;20026;-68
2023/07/28 20:13:41;;;;;;;7.05;3.38;;;21.90;98.50;;;;;;10311032;28;20030;-68
2023/07/28 20:18:47;;;;;;;3.50;2.88;;;21.70;98.50;;;;;;10313258;28;20027;-68
2023/07/28 20:23:47;;;;;;;4.40;3.38;;;21.80;98.60;;;;;;10311288;28;20034;-67
2023/07/28 20:28:48;;;;;;;5.97;3.38;;;21.80;98.70;;;;;;10313318;28;20030;-67
2023/07/28 20:33:48;;;;;;;6.47;3.60;;;21.80;98.70;;;;;;10313589;28;20026;-67
2023/07/28 20:38:51;;;;;;;4.68;3.92;;;21.80;98.70;;;;;;10312419;28;20041;-67
2023/07/28 20:43:52;;;;;;;4.93;3.75;;;21.80;98.70;;;;;;10308877;28;20034;-67
2023/07/28 20:48:53;;;;;;;5.55;3.85;;;21.80;98.70;;;;;;10308608;28;20244;-67
2023/07/28 20:53:53;;;;;;;6.03;3.92;;;21.80;98.70;;;;;;10311806;28;20031;-67
2023/07/28 20:58:54;;;;;;;6.13;4.18;;;21.80;98.80;;;;;;10312478;28;20057;-67
2023/07/28 21:04:02;;;;;;;6.50;4.07;;;21.80;98.70;;;;;;10311008;28;20031;-67
2023/07/28 21:09:04;;;;;;;6.68;4.30;;;21.80;98.80;;;;;;10309256;28;20506;-67
2023/07/28 21:14:04;;;;;;;5.45;3.97;;;21.80;98.80;;;;;;10312000;28;20294;-67
2023/07/28 21:19:05;;;;;;;6.25;4.60;;;21.80;98.80;;;;;;10317762;28;20037;-67
2023/07/28 21:24:05;;;;;;;6.15;4.07;;;21.70;98.70;;;;;;10317950;28;20552;-68
2023/07/28 21:29:06;;;;;;;6.20;4.20;;;21.70;98.70;;;;;;10317877;28;20327;-70
2023/07/28 21:34:09;;;;;;;6.05;4.32;;;21.70;98.70;;;;;;10319078;28;20038;-69
2023/07/28 21:39:10;;;;;;;6.18;4.45;;;21.70;98.70;;;;;;10320316;28;20382;-70
2023/07/28 21:44:11;;;;;;;6.50;4.38;;;21.60;98.70;;;;;;10315578;28;20026;-69
2023/07/28 21:49:11;;;;;;;5.45;4.10;;;21.70;98.70;;;;;;10342208;28;20062;-70
2023/07/28 21:54:12;;;;;;;6.57;3.95;;;21.70;98.70;;;;;;10315323;28;20505;-69
2023/07/28 21:59:13;;;;;;;6.88;4.63;;;21.60;98.70;;;;;;10315795;28;20348;-69
2023/07/28 22:04:13;;;;;;;6.57;4.35;;;21.50;98.70;;;;;;10319076;28;20036;-70
2023/07/28 22:09:14;;;;;;;7.05;4.60;;;21.60;98.70;;;;;;10320486;28;20038;-69
2023/07/28 22:14:17;;;;;;;7.53;5.45;;;21.60;98.70;;;;;;10327010;28;20038;-69
2023/07/28 22:19:17;;;;;;;6.13;4.60;;;21.50;98.70;;;;;;10316794;28;20042;-69
2023/07/28 22:24:18;;;;;;;6.20;4.53;;;21.50;98.70;;;;;;10329011;28;20444;-69
2023/07/28 22:29:19;;;;;;;7.57;5.10;;;21.50;98.70;;;;;;10327244;28;20453;-69
2023/07/28 22:34:20;;;;;;;8.07;4.80;;;21.50;98.70;;;;;;10328388;28;20026;-69
2023/07/28 22:39:20;;;;;;;7.10;5.03;;;21.40;98.70;;;;;;10321798;28;20018;-69
2023/07/28 22:44:21;;;;;;;7.32;5.28;;;21.40;98.70;;;;;;10331863;28;20272;-69
2023/07/28 22:49:21;;;;;;;8.77;5.03;;;21.40;98.70;;;;;;10330035;28;20033;-70
2023/07/28 22:54:22;;;;;;;7.55;5.10;;;21.40;98.70;;;;;;10332275;28;20030;-69
2023/07/28 22:59:23;;;;;;;7.03;5.03;;;21.30;98.60;;;;;;10328837;28;20366;-69
2023/07/28 23:04:24;;;;;;;8.73;5.15;;;21.40;98.70;;;;;;10324286;28;20031;-69
2023/07/28 23:09:24;;;;;;;8.85;5.32;;;21.40;98.70;;;;;;10327527;28;20026;-70
2023/07/28 23:14:25;;;;;;;7.97;5.72;;;21.40;98.70;;;;;;10323687;28;20027;-71
2023/07/28 23:19:26;;;;;;;7.22;5.32;;;21.30;98.60;;;;;;10322691;28;20034;-69
2023/07/28 23:24:27;;;;;;;7.45;5.32;;;21.30;98.60;;;;;;10328515;28;20239;-70
2023/07/28 23:29:28;;;;;;;8.27;5.00;;;21.30;98.60;;;;;;10327176;28;20037;-69
2023/07/28 23:34:28;;;;;;;7.07;5.43;;;21.30;98.60;;;;;;10309900;28;20070;-69
2023/07/28 23:39:29;;;;;;;7.35;4.57;;;21.30;98.60;;;;;;10318189;28;20034;-69
2023/07/28 23:44:29;;;;;;;8.93;5.55;;;21.20;98.60;;;;;;10325556;28;20033;-69
2023/07/28 23:49:30;;;;;;;8.63;5.43;;;21.20;98.60;;;;;;10318822;28;20387;-69
2023/07/28 23:54:30;;;;;;;7.15;4.90;;;21.10;98.60;;;;;;10331266;28;20105;-70
2023/07/28 23:59:31;;;;;;;8.13;5.53;;;21.10;98.60;;;;;;10319187;28;20041;-69
